Austin, Texas
Traffic Map
Current Weather Conditions
Austin, Texas
Broken Clouds
Broken Clouds
31°
Feels Like: 36°
Wind Chill: 31° Ceiling: 8500
Heat Index: 36° Visibility: 10mi
Dew Point: 24° Wind: 7mph
Humidity: 67% Direction: ° ()
Pressure: 29.94in Gusts: 0mph
Raw Report DataKATT 072151Z AUTO VRB06KT 10SM SCT040 SCT049 BKN085 31/24 A2994 RMK AO2 SLP125 T03060239 $
Traffic Incident Summary
Active as of:
Severity:
Category:
InformationThere was an issue retrieving the traffic information for this location. Please try a different location or try again shortly.
Advertisements
Track Severe Weather on mobile